createdAt,value
2018-12-20T00:00:08.474Z,15.80
2018-12-20T00:02:36.135Z,15.10
2018-12-20T00:05:04.723Z,15.53
2018-12-20T00:07:32.516Z,14.97
2018-12-20T00:10:00.128Z,14.63
2018-12-20T00:12:27.812Z,15.93
2018-12-20T00:14:55.390Z,16.70
2018-12-20T00:17:28.788Z,15.10
2018-12-20T00:19:56.315Z,16.07
2018-12-20T00:22:23.858Z,16.30
2018-12-20T00:24:51.648Z,16.17
2018-12-20T00:27:19.062Z,15.60
2018-12-20T00:29:46.811Z,15.77
2018-12-20T00:32:14.464Z,16.40
2018-12-20T00:34:42.319Z,16.77
2018-12-20T00:37:10.034Z,15.57
2018-12-20T00:39:37.803Z,16.77
2018-12-20T00:42:05.573Z,15.40
2018-12-20T00:44:37.422Z,17.33
2018-12-20T00:47:02.991Z,16.57
2018-12-20T00:49:30.703Z,16.27
2018-12-20T00:51:58.643Z,16.37
2018-12-20T00:54:26.729Z,16.30
2018-12-20T00:56:54.746Z,15.00
2018-12-20T00:59:22.553Z,15.50
2018-12-20T01:01:50.352Z,16.77
2018-12-20T01:04:18.075Z,16.03
2018-12-20T01:06:45.778Z,15.87
2018-12-20T01:09:13.349Z,15.63
2018-12-20T01:11:41.156Z,14.80
2018-12-20T01:14:08.616Z,16.13
2018-12-20T01:16:36.294Z,14.90
2018-12-20T01:19:03.922Z,14.90
2018-12-20T01:21:31.543Z,16.73
2018-12-20T01:23:59.175Z,14.80
2018-12-20T01:26:27.061Z,15.13
2018-12-20T01:28:55.077Z,14.00
2018-12-20T01:31:22.883Z,15.63
2018-12-20T01:33:50.572Z,15.83
2018-12-20T01:36:18.156Z,14.90
2018-12-20T01:38:45.988Z,13.80
2018-12-20T01:41:13.702Z,14.83
2018-12-20T01:43:41.761Z,16.50
2018-12-20T01:46:09.558Z,13.50
2018-12-20T01:48:37.486Z,15.13
2018-12-20T01:51:04.922Z,16.30
2018-12-20T01:53:32.509Z,14.57
2018-12-20T01:56:00.005Z,14.03
2018-12-20T01:58:27.796Z,13.67
2018-12-20T02:00:55.461Z,13.10
2018-12-20T02:03:23.281Z,15.17
2018-12-20T02:05:50.801Z,15.30
2018-12-20T02:08:18.532Z,14.73
2018-12-20T02:10:46.070Z,15.10
2018-12-20T02:13:13.991Z,14.20
2018-12-20T02:15:41.457Z,12.90
2018-12-20T02:18:09.309Z,14.87
2018-12-20T02:20:36.805Z,14.10
2018-12-20T02:23:04.416Z,14.53
2018-12-20T02:25:32.092Z,14.90
2018-12-20T02:28:00.047Z,15.00
2018-12-20T02:30:28.094Z,15.27
2018-12-20T02:32:55.686Z,14.47
2018-12-20T02:35:23.451Z,14.30
2018-12-20T02:37:51.101Z,15.17
2018-12-20T02:40:19.032Z,14.57
2018-12-20T02:42:46.663Z,15.30
2018-12-20T02:45:14.304Z,15.07
2018-12-20T02:47:42.138Z,15.10
2018-12-20T02:50:09.678Z,14.97
2018-12-20T02:52:37.604Z,14.77
2018-12-20T02:55:05.480Z,16.10
2018-12-20T02:57:33.257Z,15.67
2018-12-20T03:00:01.284Z,15.00
2018-12-20T03:02:29.362Z,14.10
2018-12-20T03:04:57.137Z,14.97
2018-12-20T03:07:25.062Z,14.30
2018-12-20T03:09:52.726Z,13.90
2018-12-20T03:12:20.351Z,14.50
2018-12-20T03:14:48.069Z,14.70
2018-12-20T03:17:15.952Z,14.43
2018-12-20T03:19:43.381Z,14.33
2018-12-20T03:22:11.104Z,14.80
2018-12-20T03:24:38.535Z,13.70
2018-12-20T03:27:06.603Z,13.90
2018-12-20T03:29:34.434Z,13.97
2018-12-20T03:32:02.639Z,15.60
2018-12-20T03:34:30.584Z,14.67
2018-12-20T03:36:58.497Z,14.80
2018-12-20T03:39:26.145Z,15.40
2018-12-20T03:41:53.745Z,15.10
2018-12-20T03:44:21.484Z,14.33
2018-12-20T03:46:49.159Z,14.67
2018-12-20T03:49:16.697Z,15.87
2018-12-20T03:51:45.019Z,14.30
2018-12-20T03:54:12.742Z,15.00
2018-12-20T03:56:40.657Z,14.50
2018-12-20T03:59:08.581Z,15.53
2018-12-20T04:01:36.407Z,15.17
2018-12-20T04:04:04.554Z,15.07
2018-12-20T04:06:32.295Z,15.23
2018-12-20T04:09:00.135Z,14.93
2018-12-20T04:11:27.743Z,16.80
2018-12-20T04:13:55.416Z,14.97
2018-12-20T04:16:23.320Z,15.13
2018-12-20T04:18:50.912Z,14.60
2018-12-20T04:21:19.083Z,16.37
2018-12-20T04:23:46.708Z,14.23
2018-12-20T04:26:14.672Z,15.60
2018-12-20T04:28:42.852Z,16.00
2018-12-20T04:31:10.424Z,15.27
2018-12-20T04:33:38.248Z,15.47
2018-12-20T04:36:05.753Z,15.97
2018-12-20T04:38:33.712Z,15.43
2018-12-20T04:41:01.360Z,15.13
2018-12-20T04:43:29.039Z,14.40
2018-12-20T04:45:56.756Z,14.37
2018-12-20T04:48:24.378Z,14.83
2018-12-20T04:50:51.959Z,14.97
2018-12-20T04:53:19.321Z,13.83
2018-12-20T04:55:46.956Z,13.87
2018-12-20T04:58:14.651Z,12.93
2018-12-20T05:00:42.458Z,12.80
2018-12-20T05:03:10.546Z,13.13
2018-12-20T05:05:38.155Z,13.20
2018-12-20T05:08:06.022Z,13.87
2018-12-20T05:10:33.844Z,13.03
2018-12-20T05:13:01.893Z,13.63
2018-12-20T05:15:29.426Z,12.73
2018-12-20T05:17:57.325Z,14.33
2018-12-20T05:20:25.257Z,13.00
2018-12-20T05:22:55.732Z,12.20
2018-12-20T05:25:23.411Z,14.60
2018-12-20T05:27:51.056Z,12.93
2018-12-20T05:30:18.895Z,13.70
2018-12-20T05:32:46.783Z,12.97
2018-12-20T05:35:14.409Z,13.37
2018-12-20T05:37:42.141Z,12.10
2018-12-20T05:40:09.813Z,12.97
2018-12-20T05:42:37.574Z,14.10
2018-12-20T05:45:05.389Z,12.00
2018-12-20T05:47:33.279Z,13.47
2018-12-20T05:50:00.905Z,11.40
2018-12-20T05:52:28.784Z,10.83
2018-12-20T05:54:56.688Z,10.70
2018-12-20T05:57:24.300Z,11.83
2018-12-20T05:59:51.969Z,10.80
2018-12-20T06:02:19.877Z,11.43
2018-12-20T06:04:47.744Z,11.00
2018-12-20T06:07:15.426Z,10.50
2018-12-20T06:09:43.308Z,10.03
2018-12-20T06:12:11.082Z,10.20
2018-12-20T06:14:38.773Z,10.13
2018-12-20T06:17:06.168Z,10.43
2018-12-20T06:19:34.073Z,9.70
2018-12-20T06:22:01.735Z,10.40
2018-12-20T06:24:29.390Z,11.00
2018-12-20T06:26:57.076Z,8.30
2018-12-20T06:29:24.748Z,9.97
2018-12-20T06:31:52.402Z,9.80
2018-12-20T06:34:20.184Z,10.50
2018-12-20T06:36:47.841Z,10.37
2018-12-20T06:39:15.415Z,9.40
2018-12-20T06:41:43.643Z,9.83
2018-12-20T06:44:11.791Z,9.73
2018-12-20T06:46:45.156Z,10.53
2018-12-20T06:49:12.988Z,10.80
2018-12-20T06:51:40.524Z,10.60
2018-12-20T06:54:08.256Z,10.63
2018-12-20T06:56:35.836Z,10.43
2018-12-20T06:59:03.652Z,9.87
2018-12-20T07:01:31.457Z,9.50
2018-12-20T07:03:58.920Z,9.63
2018-12-20T07:06:26.468Z,10.13
2018-12-20T07:08:53.864Z,9.40
2018-12-20T07:11:21.318Z,9.47
2018-12-20T07:13:49.118Z,9.80
2018-12-20T07:16:16.777Z,11.23
2018-12-20T07:18:44.678Z,11.10
2018-12-20T07:21:12.327Z,10.20
2018-12-20T07:23:40.100Z,9.80
2018-12-20T07:26:07.783Z,9.00
2018-12-20T07:28:35.361Z,9.80
2018-12-20T07:31:02.949Z,9.50
2018-12-20T07:33:30.669Z,9.53
2018-12-20T07:35:58.293Z,9.27
2018-12-20T07:38:25.784Z,9.50
2018-12-20T07:40:53.310Z,9.07
2018-12-20T07:43:20.916Z,8.27
2018-12-20T07:45:48.257Z,8.20
2018-12-20T07:48:15.952Z,9.63
2018-12-20T07:50:43.327Z,8.50
2018-12-20T07:53:11.020Z,8.63
2018-12-20T07:55:38.456Z,8.03
2018-12-20T07:58:05.985Z,8.87
2018-12-20T08:00:34.612Z,9.37
2018-12-20T08:03:02.924Z,9.13
2018-12-20T08:05:31.305Z,9.50
2018-12-20T08:07:58.976Z,8.60
2018-12-20T08:10:26.521Z,8.23
2018-12-20T08:12:54.080Z,8.50
2018-12-20T08:15:21.646Z,7.93
2018-12-20T08:17:49.212Z,8.90
2018-12-20T08:20:16.917Z,8.20
2018-12-20T08:22:44.521Z,7.90
2018-12-20T08:25:12.181Z,7.77
2018-12-20T08:27:39.984Z,7.30
2018-12-20T08:30:07.890Z,7.30
2018-12-20T08:32:35.393Z,7.00
2018-12-20T08:35:03.503Z,6.90
2018-12-20T08:37:30.963Z,6.77
2018-12-20T08:39:58.604Z,6.33
2018-12-20T08:42:26.383Z,7.10
2018-12-20T08:44:54.063Z,6.93
2018-12-20T08:47:21.627Z,6.50
2018-12-20T08:49:49.279Z,6.03
2018-12-20T08:52:17.255Z,6.20
2018-12-20T08:54:44.896Z,5.67
2018-12-20T08:57:12.512Z,6.00
2018-12-20T08:59:40.253Z,5.40
2018-12-20T09:02:07.925Z,5.27
2018-12-20T09:04:35.474Z,6.07
2018-12-20T09:07:03.114Z,5.00
2018-12-20T09:09:30.804Z,4.47
2018-12-20T09:11:58.384Z,4.30
2018-12-20T09:14:25.777Z,4.80
2018-12-20T09:16:53.519Z,4.40
2018-12-20T09:19:20.951Z,4.63
2018-12-20T09:21:48.575Z,4.00
2018-12-20T09:24:16.207Z,4.80
2018-12-20T09:26:43.903Z,3.93
2018-12-20T09:29:11.383Z,3.80
2018-12-20T09:31:39.217Z,4.00
2018-12-20T09:34:06.819Z,4.33
2018-12-20T09:36:34.508Z,6.27
2018-12-20T09:39:02.452Z,3.87
2018-12-20T09:41:30.840Z,3.80
2018-12-20T09:43:58.398Z,3.50
2018-12-20T09:46:26.058Z,3.40
2018-12-20T09:48:53.740Z,4.23
2018-12-20T09:51:21.518Z,3.93
2018-12-20T09:53:49.168Z,4.00
2018-12-20T09:56:16.706Z,3.70
2018-12-20T09:58:44.301Z,4.17
2018-12-20T10:01:11.782Z,4.07
2018-12-20T10:03:39.483Z,3.00
2018-12-20T10:06:07.225Z,4.20
2018-12-20T10:08:35.020Z,4.03
2018-12-20T10:11:02.619Z,3.90
2018-12-20T10:13:30.298Z,3.40
2018-12-20T10:15:57.870Z,4.10
2018-12-20T10:18:25.520Z,3.47
2018-12-20T10:20:53.108Z,3.80
2018-12-20T10:23:20.688Z,3.73
2018-12-20T10:25:48.357Z,4.10
2018-12-20T10:28:15.928Z,3.20
2018-12-20T10:30:43.501Z,4.57
2018-12-20T10:33:11.205Z,3.60
2018-12-20T10:35:41.532Z,3.60
2018-12-20T10:38:08.987Z,3.37
2018-12-20T10:40:36.580Z,3.37
2018-12-20T10:43:03.975Z,3.77
2018-12-20T10:45:31.464Z,3.40
2018-12-20T10:47:58.892Z,3.67
2018-12-20T10:50:26.616Z,4.40
2018-12-20T10:52:53.983Z,3.13
2018-12-20T10:55:21.603Z,3.80
2018-12-20T10:57:49.277Z,3.90
2018-12-20T11:00:16.984Z,3.60
2018-12-20T11:02:50.324Z,3.67
2018-12-20T11:05:27.444Z,3.50
2018-12-20T11:07:59.343Z,3.30
2018-12-20T11:10:28.392Z,3.87
2018-12-20T11:12:56.080Z,3.93
2018-12-20T11:15:23.711Z,4.37
2018-12-20T11:17:51.467Z,3.80
2018-12-20T11:20:19.140Z,3.93
2018-12-20T11:22:46.864Z,4.10
2018-12-20T11:25:14.478Z,4.10
2018-12-20T11:27:42.242Z,3.40
2018-12-20T11:30:10.584Z,3.83
2018-12-20T11:32:38.127Z,3.50
2018-12-20T11:35:06.842Z,3.70
2018-12-20T11:37:34.396Z,2.97
2018-12-20T11:40:02.086Z,2.83
2018-12-20T11:42:29.928Z,2.87
2018-12-20T11:44:57.548Z,3.27
2018-12-20T11:47:28.820Z,3.10
2018-12-20T11:49:56.680Z,2.90
2018-12-20T11:52:24.505Z,3.07
2018-12-20T11:54:54.171Z,3.03
2018-12-20T11:57:21.859Z,3.40
2018-12-20T11:59:49.644Z,2.70
2018-12-20T12:02:24.416Z,3.10
2018-12-20T12:04:47.039Z,2.40
2018-12-20T12:07:15.043Z,2.53
2018-12-20T12:09:42.551Z,2.63
2018-12-20T12:12:10.490Z,2.50
2018-12-20T12:14:38.184Z,2.23
2018-12-20T12:17:05.552Z,2.10
2018-12-20T12:19:33.128Z,2.17
2018-12-20T12:22:00.789Z,2.60
2018-12-20T12:24:28.488Z,2.97
2018-12-20T12:26:56.075Z,2.33
2018-12-20T12:29:23.891Z,2.40
2018-12-20T12:31:51.542Z,2.60
2018-12-20T12:34:19.326Z,2.63
2018-12-20T12:36:47.011Z,2.63
2018-12-20T12:39:14.989Z,2.40
2018-12-20T12:41:42.556Z,2.67
2018-12-20T12:44:10.285Z,4.37
2018-12-20T12:46:37.943Z,2.37
2018-12-20T12:49:05.633Z,2.30
2018-12-20T12:51:33.330Z,2.00
2018-12-20T12:54:00.968Z,2.43
2018-12-20T12:56:28.502Z,2.03
2018-12-20T12:58:56.261Z,2.27
2018-12-20T13:01:23.892Z,2.00
2018-12-20T13:03:51.246Z,1.97
2018-12-20T13:06:18.855Z,2.50
2018-12-20T13:08:46.335Z,2.40
2018-12-20T13:11:14.171Z,2.40
2018-12-20T13:13:42.474Z,2.37
2018-12-20T13:16:10.132Z,2.03
2018-12-20T13:18:37.887Z,2.70
2018-12-20T13:21:05.231Z,2.47
2018-12-20T13:23:33.059Z,2.17
2018-12-20T13:26:00.751Z,2.43
2018-12-20T13:28:28.416Z,2.10
2018-12-20T13:30:55.963Z,2.83
2018-12-20T13:33:23.649Z,2.40
2018-12-20T13:35:51.119Z,1.90
2018-12-20T13:38:18.987Z,2.13
2018-12-20T13:40:46.611Z,1.30
2018-12-20T13:43:14.662Z,1.50
2018-12-20T13:45:42.079Z,2.00
2018-12-20T13:48:09.760Z,1.63
2018-12-20T13:50:37.356Z,1.27
2018-12-20T13:53:05.001Z,1.37
2018-12-20T13:55:32.710Z,1.70
2018-12-20T13:58:00.492Z,1.70
2018-12-20T14:00:28.196Z,1.70
2018-12-20T14:02:55.908Z,1.77
2018-12-20T14:05:23.511Z,1.60
2018-12-20T14:07:58.611Z,1.53
2018-12-20T14:10:20.938Z,1.60
2018-12-20T14:12:48.744Z,1.50
2018-12-20T14:15:16.526Z,1.63
2018-12-20T14:17:44.130Z,1.57
2018-12-20T14:20:11.761Z,1.73
2018-12-20T14:22:39.330Z,1.60
2018-12-20T14:25:07.122Z,1.60
2018-12-20T14:27:34.924Z,1.60
2018-12-20T14:30:02.715Z,1.77
2018-12-20T14:32:30.033Z,2.00
2018-12-20T14:34:57.726Z,2.00
2018-12-20T14:37:25.219Z,2.00
2018-12-20T14:39:52.756Z,1.70
2018-12-20T14:42:20.388Z,1.83
2018-12-20T14:44:48.172Z,2.10
2018-12-20T14:47:16.064Z,2.10
2018-12-20T14:49:43.620Z,1.73
2018-12-20T14:52:11.320Z,2.30
2018-12-20T14:54:39.218Z,1.60
2018-12-20T14:57:07.424Z,2.27
2018-12-20T14:59:34.984Z,2.83
2018-12-20T15:02:02.552Z,2.20
2018-12-20T15:04:30.242Z,1.80
2018-12-20T15:06:57.956Z,2.10
2018-12-20T15:09:25.642Z,1.70
2018-12-20T15:11:53.443Z,2.00
2018-12-20T15:14:20.788Z,1.70
2018-12-20T15:16:48.407Z,1.83
2018-12-20T15:19:15.740Z,1.80
2018-12-20T15:21:43.304Z,1.80
2018-12-20T15:24:11.029Z,2.10
2018-12-20T15:26:38.752Z,2.00
2018-12-20T15:29:06.532Z,2.17
2018-12-20T15:31:34.199Z,1.90
2018-12-20T15:34:01.891Z,1.77
2018-12-20T15:36:29.578Z,2.10
2018-12-20T15:38:57.377Z,2.17
2018-12-20T15:41:24.952Z,1.83
2018-12-20T15:43:52.601Z,1.87
2018-12-20T15:46:22.246Z,2.33
2018-12-20T15:48:56.221Z,1.90
2018-12-20T15:51:21.533Z,2.30
2018-12-20T15:53:49.201Z,1.80
2018-12-20T15:56:16.885Z,2.87
2018-12-20T15:58:44.454Z,1.87
2018-12-20T16:01:11.821Z,3.00
2018-12-20T16:03:39.410Z,2.10
2018-12-20T16:06:06.802Z,2.30
2018-12-20T16:08:34.547Z,2.20
2018-12-20T16:11:02.127Z,3.03
2018-12-20T16:13:29.695Z,2.03
2018-12-20T16:15:57.297Z,2.70
2018-12-20T16:18:25.051Z,2.20
2018-12-20T16:20:52.391Z,2.10
2018-12-20T16:23:19.967Z,2.87
2018-12-20T16:25:47.551Z,2.10
2018-12-20T16:28:15.189Z,2.47
2018-12-20T16:30:42.760Z,3.23
2018-12-20T16:33:10.468Z,2.57
2018-12-20T16:35:37.853Z,2.33
2018-12-20T16:38:05.429Z,2.70
2018-12-20T16:40:33.499Z,2.13
2018-12-20T16:43:00.935Z,3.00
2018-12-20T16:45:28.274Z,2.20
2018-12-20T16:47:55.619Z,2.70
2018-12-20T16:50:23.265Z,2.83
2018-12-20T16:52:50.940Z,2.47
2018-12-20T16:55:18.494Z,3.57
2018-12-20T16:57:46.030Z,3.20
2018-12-20T17:00:13.600Z,2.50
2018-12-20T17:02:41.284Z,3.50
2018-12-20T17:05:12.984Z,2.90
2018-12-20T17:07:40.637Z,3.43
2018-12-20T17:10:08.571Z,3.73
2018-12-20T17:12:36.085Z,3.20
2018-12-20T17:15:05.469Z,2.77
2018-12-20T17:17:33.115Z,3.70
2018-12-20T17:20:00.766Z,3.90
2018-12-20T17:22:28.625Z,4.33
2018-12-20T17:24:56.145Z,2.67
2018-12-20T17:27:23.736Z,3.37
2018-12-20T17:29:51.299Z,2.90
2018-12-20T17:32:18.935Z,2.97
2018-12-20T17:34:46.466Z,2.83
2018-12-20T17:37:14.181Z,3.23
2018-12-20T17:39:41.914Z,3.20
2018-12-20T17:42:09.627Z,3.07
2018-12-20T17:44:37.204Z,2.40
2018-12-20T17:47:05.005Z,2.77
2018-12-20T17:49:32.712Z,2.60
2018-12-20T17:52:00.309Z,2.83
2018-12-20T17:54:28.135Z,2.70
2018-12-20T17:56:55.966Z,2.80
2018-12-20T17:59:23.541Z,2.50
2018-12-20T18:01:51.173Z,3.00
2018-12-20T18:04:18.872Z,2.90
2018-12-20T18:06:46.650Z,2.53
2018-12-20T18:09:14.368Z,3.70
2018-12-20T18:11:41.733Z,3.30
2018-12-20T18:14:09.272Z,3.00
2018-12-20T18:16:36.687Z,3.10
2018-12-20T18:19:04.364Z,3.03
2018-12-20T18:21:32.119Z,2.60
2018-12-20T18:23:59.742Z,3.10
2018-12-20T18:26:27.533Z,2.67
2018-12-20T18:28:55.231Z,3.23
2018-12-20T18:31:22.956Z,2.10
2018-12-20T18:33:50.616Z,2.20
2018-12-20T18:36:18.381Z,2.80
2018-12-20T18:38:46.114Z,2.30
2018-12-20T18:41:13.714Z,2.33
2018-12-20T18:43:41.470Z,2.10
2018-12-20T18:46:09.171Z,2.33
2018-12-20T18:48:36.947Z,2.83
2018-12-20T18:51:04.362Z,2.67
2018-12-20T18:53:31.762Z,2.23
2018-12-20T18:55:59.483Z,2.80
2018-12-20T18:58:26.891Z,2.47
2018-12-20T19:00:54.665Z,2.23
2018-12-20T19:03:22.403Z,2.93
2018-12-20T19:05:49.817Z,4.53
2018-12-20T19:08:17.551Z,2.73
2018-12-20T19:10:45.300Z,2.40
2018-12-20T19:13:13.032Z,2.77
2018-12-20T19:15:40.495Z,2.87
2018-12-20T19:18:08.062Z,2.80
2018-12-20T19:20:35.436Z,2.90
2018-12-20T19:23:03.248Z,2.50
2018-12-20T19:25:32.552Z,3.23
2018-12-20T19:28:00.385Z,3.80
2018-12-20T19:30:28.065Z,2.30
2018-12-20T19:32:55.640Z,2.53
2018-12-20T19:35:23.404Z,3.10
2018-12-20T19:37:51.056Z,3.53
2018-12-20T19:40:18.516Z,3.07
2018-12-20T19:42:46.251Z,3.10
2018-12-20T19:45:13.680Z,2.77
2018-12-20T19:47:41.376Z,2.40
2018-12-20T19:50:10.077Z,3.83
2018-12-20T19:52:37.871Z,2.80
2018-12-20T19:55:08.695Z,2.70
2018-12-20T19:57:36.381Z,2.30
2018-12-20T20:00:09.684Z,3.20
2018-12-20T20:02:37.636Z,2.67
2018-12-20T20:05:05.604Z,2.73
2018-12-20T20:07:33.348Z,3.47
2018-12-20T20:10:00.896Z,3.43
2018-12-20T20:12:28.512Z,2.60
2018-12-20T20:14:56.150Z,2.70
2018-12-20T20:17:23.756Z,3.30
2018-12-20T20:19:59.567Z,2.90
2018-12-20T20:22:21.108Z,3.53
2018-12-20T20:24:48.992Z,2.77
2018-12-20T20:27:16.965Z,2.63
2018-12-20T20:29:44.573Z,2.87
2018-12-20T20:32:12.075Z,3.30
2018-12-20T20:34:40.289Z,3.20
2018-12-20T20:37:08.083Z,2.67
2018-12-20T20:39:35.711Z,2.80
2018-12-20T20:42:03.399Z,2.20
2018-12-20T20:44:31.231Z,2.70
2018-12-20T20:46:58.774Z,3.17
2018-12-20T20:49:26.452Z,2.50
2018-12-20T20:51:54.132Z,2.40
2018-12-20T20:54:21.761Z,2.23
2018-12-20T20:56:49.349Z,2.23
2018-12-20T20:59:17.096Z,2.63
2018-12-20T21:01:44.860Z,1.80
2018-12-20T21:04:12.478Z,2.13
2018-12-20T21:06:46.960Z,2.00
2018-12-20T21:09:09.912Z,1.93
2018-12-20T21:11:37.553Z,2.10
2018-12-20T21:14:04.961Z,2.00
2018-12-20T21:16:32.446Z,2.17
2018-12-20T21:19:00.291Z,2.33
2018-12-20T21:21:27.989Z,2.27
2018-12-20T21:23:55.637Z,2.00
2018-12-20T21:26:23.574Z,2.23
2018-12-20T21:28:51.182Z,2.43
2018-12-20T21:31:18.868Z,1.70
2018-12-20T21:33:46.696Z,2.57
2018-12-20T21:36:14.540Z,2.40
2018-12-20T21:38:42.312Z,2.30
2018-12-20T21:41:09.880Z,2.40
2018-12-20T21:43:37.743Z,2.60
2018-12-20T21:46:05.427Z,2.37
2018-12-20T21:48:33.154Z,3.40
2018-12-20T21:51:00.985Z,3.03
2018-12-20T21:53:28.979Z,2.30
2018-12-20T21:55:56.443Z,2.30
2018-12-20T21:58:24.197Z,2.43
2018-12-20T22:00:51.772Z,3.10
2018-12-20T22:03:19.419Z,2.47
2018-12-20T22:05:46.848Z,2.83
2018-12-20T22:08:14.830Z,2.47
2018-12-20T22:10:42.429Z,2.70
2018-12-20T22:13:10.421Z,2.60
2018-12-20T22:15:38.079Z,2.90
2018-12-20T22:18:05.946Z,2.57
2018-12-20T22:20:33.493Z,2.93
2018-12-20T22:23:01.149Z,2.07
2018-12-20T22:25:29.029Z,3.13
2018-12-20T22:27:56.668Z,2.20
2018-12-20T22:30:24.512Z,3.20
2018-12-20T22:32:53.329Z,2.10
2018-12-20T22:35:21.031Z,3.63
2018-12-20T22:37:48.404Z,2.50
2018-12-20T22:40:16.135Z,3.03
2018-12-20T22:42:43.543Z,2.40
2018-12-20T22:45:11.336Z,2.20
2018-12-20T22:47:38.903Z,2.70
2018-12-20T22:50:08.983Z,2.47
2018-12-20T22:52:36.756Z,2.70
2018-12-20T22:55:04.997Z,2.30
2018-12-20T22:57:32.959Z,2.33
2018-12-20T23:00:00.804Z,2.50
2018-12-20T23:02:28.765Z,1.97
2018-12-20T23:04:56.544Z,2.53
2018-12-20T23:07:24.309Z,2.10
2018-12-20T23:09:51.969Z,2.70
2018-12-20T23:12:22.553Z,2.60
2018-12-20T23:14:50.133Z,2.60
2018-12-20T23:17:17.717Z,2.30
2018-12-20T23:19:45.372Z,2.77
2018-12-20T23:22:13.346Z,2.90
2018-12-20T23:24:40.970Z,2.23
2018-12-20T23:27:08.599Z,2.40
2018-12-20T23:29:36.042Z,2.00
2018-12-20T23:32:03.735Z,2.40
2018-12-20T23:34:31.595Z,2.70
2018-12-20T23:36:59.523Z,3.03
2018-12-20T23:39:27.331Z,2.43
2018-12-20T23:41:54.933Z,2.50
2018-12-20T23:44:22.548Z,2.40
2018-12-20T23:46:50.139Z,2.30
2018-12-20T23:49:18.052Z,2.20
2018-12-20T23:51:45.876Z,2.40
2018-12-20T23:54:13.568Z,2.50
2018-12-20T23:56:41.277Z,2.80
2018-12-20T23:59:09.061Z,2.47
